Time;durP1;ratioP1;P1;durP2;ratioP2;P2;SDS_P1;SDS_P2;PMS_P1;PMS_P2;Temp;Humidity;BMP_temperature;BMP_pressure;BME280_temperature;BME280_humidity;BME280_pressure;Samples;Min_cycle;Max_cycle;Signal;HPM_P1;HPM_P2
2022/10/01 00:00:55;;;;;;;3.93;3.10;;;10.80;99.90;;;;;;5048670;28;21260;-75
2022/10/01 00:03:24;;;;;;;3.67;2.70;;;10.90;99.90;;;;;;5047089;28;20442;-75
2022/10/01 00:06:09;;;;;;;3.47;2.47;;;10.70;99.90;;;;;;5047165;28;20794;-74
2022/10/01 00:08:36;;;;;;;2.93;2.53;;;10.40;99.90;;;;;;5048772;28;20776;-75
2022/10/01 00:11:13;;;;;;;2.70;2.50;;;10.10;99.90;;;;;;5048844;28;20515;-76
2022/10/01 00:13:41;;;;;;;3.63;2.30;;;10.10;99.90;;;;;;5055219;28;20806;-75
2022/10/01 00:16:09;;;;;;;4.10;2.67;;;10.10;99.90;;;;;;5055178;28;20406;-77
2022/10/01 00:18:36;;;;;;;4.40;2.87;;;9.90;99.90;;;;;;5055189;28;20471;-76
2022/10/01 00:21:06;;;;;;;3.37;3.07;;;9.90;99.90;;;;;;5053729;28;20430;-76
2022/10/01 00:23:31;;;;;;;3.90;2.37;;;9.60;99.90;;;;;;5053805;28;20446;-76
2022/10/01 00:26:17;;;;;;;2.90;2.70;;;9.60;99.90;;;;;;5055159;28;20419;-76
2022/10/01 00:28:45;;;;;;;2.77;2.57;;;9.40;99.90;;;;;;5055160;28;20191;-76
2022/10/01 00:31:11;;;;;;;2.63;2.43;;;9.40;99.90;;;;;;5053682;28;20435;-76
2022/10/01 00:33:37;;;;;;;3.60;2.30;;;9.40;99.90;;;;;;5055117;28;20450;-76
2022/10/01 00:36:05;;;;;;;4.47;2.10;;;9.50;99.90;;;;;;5055048;28;20418;-76
2022/10/01 00:38:31;;;;;;;3.83;2.30;;;9.50;99.90;;;;;;5055004;28;20466;-76
2022/10/01 00:40:57;;;;;;;2.83;2.40;;;9.40;99.90;;;;;;5053760;28;20422;-76
2022/10/01 00:43:25;;;;;;;2.60;2.20;;;9.40;99.90;;;;;;5055247;28;20431;-77
2022/10/01 00:45:54;;;;;;;4.60;2.40;;;9.20;99.90;;;;;;5053416;28;20501;-76
2022/10/01 00:48:21;;;;;;;2.50;2.30;;;9.20;99.90;;;;;;5055069;28;20913;-76
2022/10/01 00:50:48;;;;;;;3.60;2.40;;;9.30;99.90;;;;;;5054915;28;20422;-76
2022/10/01 00:53:16;;;;;;;3.80;2.60;;;9.30;99.90;;;;;;5054803;28;20454;-76
2022/10/01 00:55:45;;;;;;;3.43;2.80;;;9.20;99.90;;;;;;5054870;28;20472;-76
2022/10/01 00:58:13;;;;;;;3.10;2.90;;;9.00;99.90;;;;;;5055116;28;20460;-74
2022/10/01 01:00:40;;;;;;;5.40;2.93;;;9.10;99.90;;;;;;5054907;28;20414;-75
2022/10/01 01:03:06;;;;;;;4.30;3.50;;;9.10;99.90;;;;;;5053436;28;20523;-75
2022/10/01 01:05:32;;;;;;;11.00;3.63;;;9.10;99.90;;;;;;5054920;28;20475;-75
2022/10/01 01:08:00;;;;;;;3.03;2.77;;;9.20;99.90;;;;;;5053351;28;20867;-76
2022/10/01 01:10:49;;;;;;;5.43;4.20;;;9.30;99.90;;;;;;5054732;28;20229;-76
2022/10/01 01:13:23;;;;;;;3.50;3.20;;;9.30;99.90;;;;;;5054826;28;20438;-75
2022/10/01 01:16:04;;;;;;;4.03;3.43;;;9.40;99.90;;;;;;5054706;28;20461;-75
2022/10/01 01:18:42;;;;;;;5.80;3.37;;;9.40;99.90;;;;;;5053515;28;20461;-75
2022/10/01 01:21:12;;;;;;;4.33;3.93;;;9.40;99.90;;;;;;5054814;28;20500;-75
2022/10/01 01:24:02;;;;;;;4.47;3.60;;;9.50;99.90;;;;;;5052303;28;20426;-74
2022/10/01 01:26:48;;;;;;;4.50;3.07;;;9.60;99.90;;;;;;5051960;28;20816;-73
2022/10/01 01:29:25;;;;;;;2.50;2.30;;;9.70;99.90;;;;;;5053126;28;20414;-73
2022/10/01 01:31:54;;;;;;;2.67;2.23;;;10.10;99.90;;;;;;5052756;28;21150;-74
2022/10/01 01:34:25;;;;;;;2.70;2.50;;;10.20;99.90;;;;;;5051683;28;20461;-74
2022/10/01 01:36:57;;;;;;;2.60;2.40;;;10.20;99.90;;;;;;5052932;28;21349;-74
2022/10/01 01:39:27;;;;;;;2.63;2.43;;;10.20;99.90;;;;;;5052374;28;21053;-76
2022/10/01 01:41:59;;;;;;;2.67;2.47;;;10.10;99.90;;;;;;5052724;28;20410;-74
2022/10/01 01:44:30;;;;;;;2.70;2.40;;;10.10;99.90;;;;;;5052276;28;20434;-73
2022/10/01 01:46:57;;;;;;;2.70;2.27;;;10.20;99.90;;;;;;5051954;28;20420;-73
2022/10/01 01:49:24;;;;;;;1.60;1.50;;;10.10;99.90;;;;;;5051757;28;20523;-74
2022/10/01 01:52:07;;;;;;;4.07;1.93;;;10.10;99.90;;;;;;5051833;28;20426;-74
2022/10/01 01:54:35;;;;;;;3.70;2.00;;;10.10;99.90;;;;;;5051596;28;21307;-74
2022/10/01 01:57:03;;;;;;;4.00;2.27;;;10.00;99.90;;;;;;5051633;28;20505;-74
2022/10/01 01:59:30;;;;;;;2.90;1.73;;;10.00;99.90;;;;;;5051296;28;20471;-74
2022/10/01 02:01:57;;;;;;;1.90;1.77;;;10.10;99.90;;;;;;5051421;28;20410;-74
2022/10/01 02:04:36;;;;;;;4.73;2.10;;;10.10;99.90;;;;;;5050927;28;20457;-74
2022/10/01 02:07:20;;;;;;;2.23;1.60;;;10.10;99.90;;;;;;5051077;28;20912;-75
2022/10/01 02:09:58;;;;;;;1.90;1.80;;;10.10;99.90;;;;;;5051245;28;20503;-72
2022/10/01 02:12:24;;;;;;;2.77;1.63;;;10.20;99.90;;;;;;5052338;28;20425;-76
2022/10/01 02:14:55;;;;;;;6.53;1.33;;;10.30;99.90;;;;;;5049232;28;20454;-74
2022/10/01 02:17:52;;;;;;;2.03;1.13;;;10.30;99.90;;;;;;5050893;28;20191;-76
2022/10/01 02:20:28;;;;;;;1.77;1.37;;;10.40;99.90;;;;;;5050811;28;20447;-76
2022/10/01 02:22:59;;;;;;;1.87;1.33;;;10.40;99.90;;;;;;5050630;28;20455;-75
2022/10/01 02:25:31;;;;;;;1.40;1.30;;;10.40;99.90;;;;;;5050620;28;20995;-77
2022/10/01 02:28:02;;;;;;;1.60;1.50;;;10.40;99.90;;;;;;5050729;28;20515;-75
2022/10/01 02:30:30;;;;;;;1.40;1.30;;;10.30;99.90;;;;;;5050660;28;20414;-75
2022/10/01 02:32:58;;;;;;;1.53;1.43;;;10.30;99.90;;;;;;5050556;28;20442;-76
2022/10/01 02:35:26;;;;;;;1.40;1.30;;;10.40;99.90;;;;;;5050312;28;20462;-75
2022/10/01 02:37:55;;;;;;;4.40;1.50;;;10.30;99.90;;;;;;5050565;28;20416;-76
2022/10/01 02:40:25;;;;;;;1.37;1.27;;;10.30;99.90;;;;;;5050827;28;20453;-76
2022/10/01 02:42:59;;;;;;;1.30;1.20;;;10.20;99.90;;;;;;5032556;28;20433;-76
2022/10/01 02:45:26;;;;;;;2.40;1.47;;;10.20;99.90;;;;;;5049549;28;20408;-76
2022/10/01 02:48:07;;;;;;;1.60;1.50;;;10.40;99.90;;;;;;5050627;28;20407;-75
2022/10/01 02:50:52;;;;;;;1.70;1.37;;;10.40;99.90;;;;;;5050682;28;20485;-74
2022/10/01 02:53:36;;;;;;;1.10;0.93;;;10.20;99.90;;;;;;5049063;28;20443;-74
2022/10/01 02:56:04;;;;;;;1.50;1.10;;;10.30;99.90;;;;;;5050548;28;20529;-74
2022/10/01 02:58:30;;;;;;;3.80;1.07;;;10.30;99.90;;;;;;5050470;28;20558;-74
2022/10/01 03:00:55;;;;;;;1.37;1.23;;;10.30;99.90;;;;;;5050289;28;20498;-75
2022/10/01 03:03:22;;;;;;;1.10;1.00;;;10.40;99.90;;;;;;5050096;28;20193;-76
2022/10/01 03:05:48;;;;;;;1.53;1.43;;;10.50;99.90;;;;;;5049922;28;20168;-74
2022/10/01 03:08:13;;;;;;;1.53;1.40;;;10.40;99.90;;;;;;5049883;28;20476;-75
2022/10/01 03:10:39;;;;;;;1.50;1.10;;;10.50;99.90;;;;;;5049872;28;20219;-75
2022/10/01 03:13:05;;;;;;;3.40;1.23;;;10.50;99.90;;;;;;5049858;28;20238;-76
2022/10/01 03:15:30;;;;;;;1.60;1.50;;;10.50;99.90;;;;;;5031882;28;20188;-76
2022/10/01 03:17:56;;;;;;;1.70;0.90;;;10.50;99.90;;;;;;5049744;28;20468;-74
2022/10/01 03:20:22;;;;;;;1.90;1.13;;;10.50;99.90;;;;;;5049846;28;20308;-78
2022/10/01 03:22:48;;;;;;;1.43;1.20;;;10.50;99.90;;;;;;5048252;28;20234;-77
2022/10/01 03:25:14;;;;;;;1.00;0.90;;;10.50;99.90;;;;;;5049968;28;20423;-77
2022/10/01 03:27:41;;;;;;;1.13;1.03;;;10.60;99.90;;;;;;5031812;28;20180;-76
2022/10/01 03:30:07;;;;;;;1.30;1.20;;;10.60;99.90;;;;;;5049410;28;20442;-76
2022/10/01 03:32:32;;;;;;;1.30;1.17;;;10.50;99.90;;;;;;5049568;28;20788;-77
2022/10/01 03:34:58;;;;;;;1.20;1.10;;;10.50;99.90;;;;;;5030979;28;20452;-78
2022/10/01 03:37:24;;;;;;;1.50;1.10;;;10.50;99.90;;;;;;5047793;28;20195;-77
2022/10/01 03:39:49;;;;;;;1.70;1.60;;;10.40;99.90;;;;;;5048542;28;20212;-76
2022/10/01 03:42:15;;;;;;;1.97;1.40;;;10.40;99.90;;;;;;5049672;28;20929;-74
2022/10/01 03:44:42;;;;;;;2.77;1.20;;;10.40;99.90;;;;;;5049121;28;20200;-74
2022/10/01 03:47:08;;;;;;;2.07;1.50;;;10.20;99.90;;;;;;5048718;28;20175;-76
2022/10/01 03:49:34;;;;;;;1.17;1.07;;;10.10;99.90;;;;;;5049402;28;20947;-77
2022/10/01 03:52:01;;;;;;;1.53;1.43;;;10.10;99.90;;;;;;5049336;28;20435;-77
2022/10/01 03:54:29;;;;;;;3.10;1.03;;;10.10;99.90;;;;;;5048083;28;20195;-75
2022/10/01 03:56:54;;;;;;;1.30;1.10;;;10.10;99.90;;;;;;5049382;28;20434;-77
2022/10/01 03:59:20;;;;;;;2.20;1.40;;;10.10;99.90;;;;;;5049677;28;20471;-75
2022/10/01 04:01:46;;;;;;;1.93;1.23;;;10.20;99.90;;;;;;5048630;28;20184;-76
2022/10/01 04:04:11;;;;;;;1.50;1.30;;;10.20;99.90;;;;;;5048195;28;20201;-74
2022/10/01 04:06:37;;;;;;;1.07;0.97;;;10.10;99.90;;;;;;5049574;28;20418;-74
2022/10/01 04:09:03;;;;;;;1.47;0.87;;;10.20;99.90;;;;;;5049477;28;20190;-75
2022/10/01 04:11:29;;;;;;;1.70;1.10;;;10.20;99.90;;;;;;5049683;28;20665;-75
2022/10/01 04:13:56;;;;;;;2.37;1.20;;;10.30;99.90;;;;;;5049613;28;20275;-76
2022/10/01 04:16:23;;;;;;;1.00;0.80;;;10.30;99.90;;;;;;5049608;28;21022;-74
2022/10/01 04:18:52;;;;;;;1.33;1.03;;;10.30;99.90;;;;;;5048908;28;20470;-76
2022/10/01 04:21:18;;;;;;;2.33;1.50;;;10.30;99.90;;;;;;5049383;28;20424;-76
2022/10/01 04:23:43;;;;;;;1.53;1.00;;;10.30;99.90;;;;;;5049401;28;20444;-76
2022/10/01 04:26:09;;;;;;;1.50;1.10;;;10.30;99.90;;;;;;5049453;28;20415;-75
2022/10/01 04:28:35;;;;;;;0.83;0.80;;;10.20;99.90;;;;;;5047875;28;20189;-76
2022/10/01 04:33:47;;;;;;;1.50;0.80;;;10.30;99.90;;;;;;5049449;28;20215;-75
2022/10/01 04:36:13;;;;;;;3.30;1.00;;;10.30;99.90;;;;;;5049225;28;20424;-76
2022/10/01 04:38:39;;;;;;;1.20;1.10;;;10.30;99.90;;;;;;5049185;28;20535;-75
2022/10/01 04:41:05;;;;;;;1.00;0.90;;;10.20;99.90;;;;;;5049189;28;20933;-75
2022/10/01 04:43:30;;;;;;;1.17;1.00;;;10.20;99.90;;;;;;5049605;28;20197;-75
2022/10/01 04:45:56;;;;;;;1.07;0.90;;;10.20;99.90;;;;;;5049705;28;20420;-75
2022/10/01 04:48:22;;;;;;;1.97;1.03;;;10.20;99.90;;;;;;5048905;28;20192;-75
2022/10/01 04:50:47;;;;;;;1.57;1.20;;;10.30;99.90;;;;;;5048879;28;20210;-76
2022/10/01 04:53:13;;;;;;;2.70;0.93;;;10.20;99.90;;;;;;5030568;28;20482;-76
2022/10/01 04:55:39;;;;;;;2.23;1.13;;;10.20;99.90;;;;;;5047007;28;20189;-76
2022/10/01 04:58:04;;;;;;;2.50;1.30;;;10.20;99.90;;;;;;5048697;28;20203;-74
2022/10/01 05:00:30;;;;;;;1.10;1.00;;;10.10;99.90;;;;;;5052320;28;20679;-75
2022/10/01 05:02:56;;;;;;;1.10;1.00;;;10.10;99.90;;;;;;5052671;28;20197;-78
2022/10/01 05:05:23;;;;;;;1.30;1.20;;;10.10;99.90;;;;;;5051203;28;20213;-79
2022/10/01 05:07:49;;;;;;;1.40;1.10;;;10.10;99.90;;;;;;5052587;28;20181;-77
2022/10/01 05:10:18;;;;;;;2.30;1.13;;;10.10;99.90;;;;;;5051994;28;20417;-77
2022/10/01 05:12:45;;;;;;;1.73;1.03;;;10.10;99.90;;;;;;5052260;28;20559;-75
2022/10/01 05:15:11;;;;;;;8.30;1.50;;;10.10;99.90;;;;;;5052171;28;20905;-77
2022/10/01 05:17:37;;;;;;;1.57;1.20;;;10.00;99.90;;;;;;5051648;28;21211;-75
2022/10/01 05:20:05;;;;;;;1.30;1.17;;;10.20;99.90;;;;;;5051680;28;20474;-73
2022/10/01 05:22:31;;;;;;;1.47;1.00;;;10.30;99.90;;;;;;5051615;28;20683;-75
2022/10/01 05:24:58;;;;;;;1.20;0.90;;;10.30;99.90;;;;;;5050126;28;20538;-77
2022/10/01 05:27:27;;;;;;;1.13;1.03;;;10.40;99.90;;;;;;5050069;28;20307;-75
2022/10/01 05:29:52;;;;;;;1.43;1.10;;;10.40;99.90;;;;;;5050659;28;20916;-75
2022/10/01 05:32:18;;;;;;;1.03;0.90;;;10.50;99.90;;;;;;5050006;28;20434;-75
2022/10/01 05:34:44;;;;;;;1.53;0.90;;;10.50;99.90;;;;;;5034353;28;20743;-77
2022/10/01 05:37:10;;;;;;;1.53;1.10;;;10.60;99.90;;;;;;5051599;28;20418;-77
2022/10/01 05:39:36;;;;;;;3.13;1.00;;;10.50;99.90;;;;;;5035324;28;20209;-74
2022/10/01 05:42:02;;;;;;;0.93;0.83;;;10.60;99.90;;;;;;5053208;28;20901;-77
2022/10/01 05:44:28;;;;;;;1.60;1.00;;;10.60;99.90;;;;;;5051858;28;21012;-77
2022/10/01 05:46:54;;;;;;;1.67;1.00;;;10.70;99.90;;;;;;5053307;28;20420;-76
2022/10/01 05:49:23;;;;;;;2.70;0.87;;;10.60;99.90;;;;;;5053596;28;20224;-77
2022/10/01 05:51:48;;;;;;;1.40;1.30;;;10.70;99.90;;;;;;5054827;28;20180;-78
2022/10/01 05:54:18;;;;;;;3.67;1.20;;;10.70;99.90;;;;;;5055470;28;20443;-78
2022/10/01 05:56:44;;;;;;;1.10;0.90;;;10.80;99.90;;;;;;5055765;28;20199;-78
2022/10/01 05:59:10;;;;;;;1.53;1.20;;;10.70;99.90;;;;;;5053988;28;20960;-77
2022/10/01 06:01:36;;;;;;;2.50;0.80;;;10.70;99.90;;;;;;5038137;28;20457;-77
2022/10/01 06:04:02;;;;;;;1.40;1.17;;;10.80;99.90;;;;;;5055384;28;20202;-77
2022/10/01 06:06:28;;;;;;;1.30;1.20;;;10.90;99.90;;;;;;5051613;28;20265;-77
2022/10/01 06:08:54;;;;;;;1.40;1.20;;;10.80;99.90;;;;;;5052567;28;20197;-77
2022/10/01 06:11:23;;;;;;;2.40;1.43;;;10.80;99.90;;;;;;5052181;28;20436;-77
2022/10/01 06:13:49;;;;;;;1.80;1.07;;;10.80;99.90;;;;;;5053022;28;20201;-77
2022/10/01 06:16:15;;;;;;;1.53;1.00;;;10.70;99.90;;;;;;5054721;28;20838;-77
2022/10/01 06:18:41;;;;;;;1.27;1.03;;;10.70;99.90;;;;;;5053283;28;20455;-76
2022/10/01 06:21:08;;;;;;;1.40;1.30;;;10.70;99.90;;;;;;5052947;28;20292;-77
2022/10/01 06:23:33;;;;;;;1.93;1.17;;;10.70;99.90;;;;;;5051835;28;20442;-76
2022/10/01 06:26:01;;;;;;;1.27;1.17;;;10.70;99.90;;;;;;5052544;28;20415;-76
2022/10/01 06:28:27;;;;;;;1.40;1.27;;;10.70;99.90;;;;;;5052661;28;20187;-79
2022/10/01 06:30:52;;;;;;;4.90;1.83;;;10.60;99.90;;;;;;5054167;28;20423;-77
2022/10/01 06:33:18;;;;;;;2.30;1.60;;;10.70;99.90;;;;;;5053605;28;20453;-76
2022/10/01 06:35:46;;;;;;;5.30;1.50;;;10.70;99.90;;;;;;5052264;28;20308;-77
2022/10/01 06:38:12;;;;;;;3.17;1.17;;;10.90;99.90;;;;;;5051178;28;20207;-78
2022/10/01 06:40:39;;;;;;;2.37;1.23;;;10.80;99.90;;;;;;5052485;28;20423;-77
2022/10/01 06:43:07;;;;;;;2.53;1.40;;;10.70;99.90;;;;;;5052811;28;20493;-76
2022/10/01 06:45:37;;;;;;;2.40;1.30;;;10.70;99.90;;;;;;5052649;28;20424;-77
2022/10/01 06:48:03;;;;;;;2.40;1.60;;;10.50;99.90;;;;;;5052037;28;20424;-76
2022/10/01 06:50:29;;;;;;;1.50;1.40;;;10.30;99.90;;;;;;5053998;28;20445;-78
2022/10/01 06:52:56;;;;;;;4.03;1.90;;;10.10;99.90;;;;;;5053293;28;20431;-76
2022/10/01 06:55:26;;;;;;;1.60;1.50;;;10.10;99.90;;;;;;5051989;28;20407;-77
2022/10/01 06:57:57;;;;;;;2.03;1.87;;;10.00;99.90;;;;;;5049836;28;20441;-77
2022/10/01 07:00:23;;;;;;;1.60;1.50;;;10.00;99.90;;;;;;5053533;28;20424;-77
2022/10/01 07:02:49;;;;;;;2.07;1.87;;;9.90;99.90;;;;;;5051237;28;20430;-77
2022/10/01 07:05:15;;;;;;;3.97;1.67;;;9.90;99.90;;;;;;5035607;28;20419;-77
2022/10/01 07:07:43;;;;;;;5.10;1.70;;;9.80;99.90;;;;;;5052399;28;20184;-77
2022/10/01 07:10:10;;;;;;;3.30;2.30;;;9.80;99.90;;;;;;5052514;28;20434;-78
2022/10/01 07:12:36;;;;;;;2.77;2.00;;;9.70;99.90;;;;;;5050376;28;20860;-77
2022/10/01 07:15:04;;;;;;;2.27;2.07;;;9.70;99.90;;;;;;5050144;28;20428;-78
2022/10/01 07:17:30;;;;;;;2.00;1.90;;;9.60;99.90;;;;;;5050833;28;20418;-77
2022/10/01 07:19:56;;;;;;;3.87;1.93;;;9.50;99.90;;;;;;5050842;28;20560;-77
2022/10/01 07:22:23;;;;;;;2.30;1.97;;;9.50;99.90;;;;;;5050064;28;20848;-78
2022/10/01 07:24:49;;;;;;;2.30;1.60;;;9.40;99.90;;;;;;5033300;28;20209;-77
2022/10/01 07:27:15;;;;;;;2.03;1.53;;;9.50;99.90;;;;;;5051015;28;20468;-77
2022/10/01 07:29:41;;;;;;;2.40;2.20;;;9.50;99.90;;;;;;5050406;28;20806;-77
2022/10/01 07:32:09;;;;;;;2.20;1.93;;;9.50;99.90;;;;;;5050746;28;20188;-78
2022/10/01 07:34:37;;;;;;;2.70;2.20;;;9.60;99.90;;;;;;5050329;28;20209;-77
2022/10/01 07:37:02;;;;;;;3.10;2.10;;;9.60;99.90;;;;;;5050542;28;20424;-77
2022/10/01 07:39:29;;;;;;;1.93;1.80;;;9.60;99.90;;;;;;5049190;28;20519;-77
2022/10/01 07:41:55;;;;;;;3.33;1.90;;;9.60;99.90;;;;;;5049958;28;20182;-77
2022/10/01 07:44:21;;;;;;;3.07;2.30;;;9.70;99.90;;;;;;5049733;28;20522;-76
2022/10/01 07:46:47;;;;;;;2.67;2.00;;;9.50;99.90;;;;;;5050271;28;20960;-78
2022/10/01 07:49:14;;;;;;;2.40;2.20;;;9.50;99.90;;;;;;5049457;28;20266;-77
2022/10/01 07:51:42;;;;;;;2.10;2.00;;;9.50;99.90;;;;;;5048684;28;20433;-76
2022/10/01 07:54:07;;;;;;;3.00;1.87;;;9.50;99.90;;;;;;5048764;28;20449;-78
2022/10/01 07:56:33;;;;;;;4.30;2.37;;;9.50;99.90;;;;;;5049608;28;20447;-76
2022/10/01 07:58:59;;;;;;;2.33;2.00;;;9.60;99.90;;;;;;5049534;28;20308;-77
2022/10/01 08:01:25;;;;;;;2.67;1.83;;;9.50;99.90;;;;;;5047325;28;20177;-76
2022/10/01 08:03:51;;;;;;;3.20;1.87;;;9.50;99.90;;;;;;5047441;28;20249;-76
2022/10/01 08:06:18;;;;;;;2.10;1.60;;;9.30;99.90;;;;;;5047685;28;20462;-76
2022/10/01 08:08:45;;;;;;;4.40;1.60;;;9.60;99.90;;;;;;5048259;28;21252;-79
2022/10/01 08:11:13;;;;;;;2.20;1.50;;;9.60;99.90;;;;;;5047500;28;20419;-75
2022/10/01 08:13:40;;;;;;;2.53;1.80;;;9.70;99.90;;;;;;5045755;28;20899;-77
2022/10/01 08:16:08;;;;;;;2.03;1.93;;;9.70;99.90;;;;;;5048470;28;20517;-75
2022/10/01 08:18:36;;;;;;;4.43;1.70;;;9.70;99.90;;;;;;5049104;28;20913;-80
2022/10/01 08:21:02;;;;;;;4.10;1.70;;;9.70;99.90;;;;;;5047196;28;21221;-77
2022/10/01 08:23:30;;;;;;;2.33;1.50;;;9.80;99.90;;;;;;5048866;28;20867;-77
2022/10/01 08:26:00;;;;;;;2.33;1.33;;;9.80;99.90;;;;;;5046452;28;20428;-76
2022/10/01 08:28:26;;;;;;;1.57;1.47;;;9.80;99.90;;;;;;5047736;28;20798;-76
2022/10/01 08:30:52;;;;;;;4.13;1.70;;;9.80;99.90;;;;;;5047617;28;20514;-76
2022/10/01 08:33:17;;;;;;;1.50;1.40;;;10.00;99.90;;;;;;5049409;28;20442;-76
2022/10/01 08:35:43;;;;;;;2.83;1.20;;;9.90;99.90;;;;;;5049914;28;20215;-76
2022/10/01 08:38:10;;;;;;;6.93;1.40;;;9.90;99.90;;;;;;5051734;28;20208;-77
2022/10/01 08:40:42;;;;;;;1.20;1.00;;;10.00;99.90;;;;;;5050236;28;20222;-78
2022/10/01 08:43:19;;;;;;;2.80;1.10;;;9.90;99.90;;;;;;5051185;28;20848;-77
2022/10/01 08:45:54;;;;;;;1.33;1.17;;;10.00;99.90;;;;;;5051310;28;20445;-76
2022/10/01 08:48:36;;;;;;;1.20;1.10;;;10.00;99.90;;;;;;5050262;28;20426;-77
2022/10/01 08:51:16;;;;;;;1.53;0.90;;;10.10;99.90;;;;;;5051437;28;20465;-78
2022/10/01 08:53:47;;;;;;;3.23;0.80;;;10.10;99.90;;;;;;5051110;28;20438;-76
2022/10/01 08:56:22;;;;;;;1.00;0.90;;;10.20;99.90;;;;;;5050822;28;21059;-77
2022/10/01 08:58:56;;;;;;;1.80;1.17;;;10.30;99.90;;;;;;5050760;28;20465;-77
2022/10/01 09:01:22;;;;;;;1.10;0.97;;;10.30;99.90;;;;;;5051523;28;20447;-77
2022/10/01 09:03:49;;;;;;;1.47;1.23;;;10.30;99.90;;;;;;5052608;28;20533;-74
2022/10/01 09:06:24;;;;;;;1.77;1.30;;;10.40;99.90;;;;;;5051920;28;20961;-75
2022/10/01 09:09:27;;;;;;;1.40;1.00;;;10.50;99.90;;;;;;5051455;28;20409;-76
2022/10/01 09:12:09;;;;;;;2.00;1.73;;;10.50;99.90;;;;;;5059673;28;20413;-76
2022/10/01 09:15:07;;;;;;;1.17;0.90;;;10.50;99.90;;;;;;5053441;28;20468;-76
2022/10/01 09:17:43;;;;;;;2.27;1.60;;;10.60;99.90;;;;;;5051446;28;20421;-76
2022/10/01 09:20:28;;;;;;;0.97;0.70;;;10.70;99.90;;;;;;5051916;28;20992;-75
2022/10/01 09:23:06;;;;;;;1.17;0.90;;;10.80;99.90;;;;;;5052197;28;20809;-75
2022/10/01 09:25:37;;;;;;;1.00;0.67;;;10.90;99.90;;;;;;5050501;28;21293;-75
2022/10/01 09:28:22;;;;;;;0.80;0.60;;;11.00;99.90;;;;;;5050706;28;20508;-76
2022/10/01 09:31:11;;;;;;;1.20;0.77;;;11.00;99.90;;;;;;5052121;28;20409;-76
2022/10/01 09:33:47;;;;;;;1.93;0.60;;;11.10;99.90;;;;;;5049768;28;20452;-75
2022/10/01 09:36:25;;;;;;;0.93;0.63;;;11.10;99.90;;;;;;5050686;28;20517;-76
2022/10/01 09:39:49;;;;;;;2.97;0.70;;;11.20;99.90;;;;;;5051205;28;20816;-76
2022/10/01 09:42:17;;;;;;;2.50;0.50;;;11.20;99.90;;;;;;5009071;28;20430;-76
2022/10/01 09:44:42;;;;;;;1.00;0.70;;;11.30;99.90;;;;;;4991537;28;20447;-75
2022/10/01 09:47:20;;;;;;;1.23;0.70;;;11.30;99.90;;;;;;5018537;28;20439;-76
2022/10/01 09:49:48;;;;;;;0.87;0.60;;;11.30;99.90;;;;;;5032622;28;20238;-76
2022/10/01 09:52:33;;;;;;;2.60;0.50;;;11.40;99.90;;;;;;5032746;28;20428;-75
2022/10/01 09:55:17;;;;;;;1.87;0.50;;;11.40;99.90;;;;;;5049245;28;20494;-76
2022/10/01 09:57:52;;;;;;;0.90;0.50;;;11.60;99.90;;;;;;5050755;28;20439;-75
2022/10/01 10:00:24;;;;;;;0.70;0.40;;;11.60;99.90;;;;;;5050534;28;20423;-76
2022/10/01 10:02:52;;;;;;;0.90;0.60;;;11.60;99.90;;;;;;5050604;28;20415;-76
2022/10/01 10:05:28;;;;;;;1.67;0.60;;;11.60;99.90;;;;;;5048987;28;21211;-76
2022/10/01 10:08:02;;;;;;;0.70;0.60;;;11.70;99.90;;;;;;5049428;28;20410;-76
2022/10/01 10:10:34;;;;;;;0.80;0.50;;;11.70;99.90;;;;;;5050672;28;20429;-76
2022/10/01 10:13:09;;;;;;;1.87;0.70;;;11.70;99.90;;;;;;5049215;28;20523;-76
2022/10/01 10:15:42;;;;;;;1.33;0.57;;;11.70;99.90;;;;;;5048819;28;20429;-75
2022/10/01 10:18:16;;;;;;;0.70;0.50;;;11.70;99.90;;;;;;5050958;28;20400;-76
2022/10/01 10:20:44;;;;;;;2.60;1.03;;;11.70;99.90;;;;;;5050214;28;20494;-76
2022/10/01 10:23:18;;;;;;;1.67;0.60;;;11.70;99.90;;;;;;5048845;28;20457;-75
2022/10/01 10:26:01;;;;;;;2.43;0.90;;;11.70;99.90;;;;;;5049397;28;20983;-76
2022/10/01 10:28:41;;;;;;;2.50;0.50;;;11.60;99.90;;;;;;5050712;28;20775;-75
2022/10/01 10:31:28;;;;;;;0.73;0.50;;;11.60;99.90;;;;;;5049631;28;20754;-76
2022/10/01 10:34:12;;;;;;;0.90;0.60;;;11.60;99.90;;;;;;5051908;28;20969;-76
2022/10/01 10:36:39;;;;;;;0.80;0.50;;;11.50;99.90;;;;;;5049618;28;20786;-76
2022/10/01 10:39:13;;;;;;;2.33;0.60;;;11.60;99.90;;;;;;5050753;28;20535;-77
2022/10/01 10:41:43;;;;;;;0.87;0.60;;;11.50;99.90;;;;;;5051877;28;20400;-77
2022/10/01 10:44:15;;;;;;;2.13;0.60;;;11.50;99.90;;;;;;5051281;28;20429;-77
2022/10/01 10:46:43;;;;;;;0.80;0.50;;;11.40;99.90;;;;;;5050909;28;20416;-76
2022/10/01 10:49:20;;;;;;;1.87;0.63;;;11.40;99.90;;;;;;5049366;28;20443;-76
2022/10/01 10:51:52;;;;;;;0.90;0.60;;;11.30;99.90;;;;;;5050843;28;20442;-76
2022/10/01 10:54:38;;;;;;;0.80;0.60;;;11.20;99.90;;;;;;5050444;28;20438;-77
2022/10/01 10:57:22;;;;;;;0.80;0.60;;;11.10;99.90;;;;;;5050123;28;20952;-76
2022/10/01 11:00:09;;;;;;;1.93;0.70;;;11.10;99.90;;;;;;5050560;28;20491;-76
2022/10/01 11:02:38;;;;;;;1.00;0.70;;;11.20;99.90;;;;;;5048967;28;20481;-77
2022/10/01 11:05:16;;;;;;;1.43;0.50;;;11.30;99.90;;;;;;5048898;28;20431;-76
2022/10/01 11:07:44;;;;;;;0.80;0.60;;;11.30;99.90;;;;;;5050269;28;20403;-76
2022/10/01 11:10:41;;;;;;;0.77;0.50;;;11.30;99.90;;;;;;5050543;28;20456;-76
2022/10/01 11:13:22;;;;;;;1.20;0.50;;;11.40;99.90;;;;;;5050820;28;20437;-76
2022/10/01 11:16:23;;;;;;;0.77;0.50;;;11.40;99.90;;;;;;5050337;28;20396;-77
2022/10/01 11:19:19;;;;;;;0.80;0.50;;;11.50;99.90;;;;;;5049852;28;20471;-76
2022/10/01 11:22:03;;;;;;;1.43;0.67;;;11.50;99.90;;;;;;5050214;28;20403;-77
2022/10/01 11:25:01;;;;;;;2.30;0.70;;;11.60;99.90;;;;;;5049595;28;20464;-76
2022/10/01 11:27:41;;;;;;;0.70;0.50;;;11.60;99.90;;;;;;5036834;28;20414;-77
2022/10/01 11:30:16;;;;;;;2.50;0.53;;;11.70;99.90;;;;;;5049562;28;20887;-77
2022/10/01 11:33:02;;;;;;;0.70;0.40;;;11.70;99.90;;;;;;5049474;28;20415;-76
2022/10/01 11:36:10;;;;;;;0.90;0.60;;;11.80;99.90;;;;;;5048058;28;20424;-75
2022/10/01 11:39:02;;;;;;;0.80;0.60;;;11.80;99.90;;;;;;5007501;28;20828;-77
2022/10/01 11:41:49;;;;;;;0.83;0.50;;;11.90;99.90;;;;;;5036799;28;20452;-77
2022/10/01 11:44:22;;;;;;;1.57;0.40;;;11.90;99.90;;;;;;5049222;28;20437;-77
2022/10/01 11:46:57;;;;;;;5.07;0.60;;;12.00;99.90;;;;;;5047928;28;20432;-77
2022/10/01 11:49:23;;;;;;;1.00;0.60;;;11.90;99.90;;;;;;5049420;28;20428;-75
2022/10/01 11:52:12;;;;;;;1.30;0.50;;;11.90;99.90;;;;;;5049337;28;20423;-76
2022/10/01 11:54:50;;;;;;;0.70;0.40;;;12.00;99.90;;;;;;5049622;28;20208;-78
2022/10/01 12:00:06;;;;;;;1.57;0.43;;;12.00;99.90;;;;;;5049040;28;20456;-77
2022/10/01 12:02:50;;;;;;;2.50;0.50;;;12.00;99.90;;;;;;5049125;28;20424;-77
2022/10/01 12:05:21;;;;;;;0.90;0.53;;;12.10;99.90;;;;;;5049375;28;20471;-77
2022/10/01 12:08:10;;;;;;;2.73;0.73;;;12.10;99.90;;;;;;5048970;28;20436;-77
2022/10/01 12:10:41;;;;;;;1.23;0.60;;;12.10;99.90;;;;;;5049000;28;20411;-77
2022/10/01 12:13:31;;;;;;;0.70;0.40;;;12.20;99.90;;;;;;5048908;28;20613;-77
2022/10/01 12:16:14;;;;;;;0.80;0.50;;;12.20;99.90;;;;;;5049290;28;21072;-76
2022/10/01 12:18:51;;;;;;;0.83;0.50;;;12.20;99.90;;;;;;5049296;28;20821;-77
2022/10/01 12:21:28;;;;;;;0.80;0.60;;;12.30;99.90;;;;;;5049494;28;20837;-77
2022/10/01 12:24:02;;;;;;;0.80;0.50;;;12.30;99.90;;;;;;5048854;28;20911;-77
2022/10/01 12:26:42;;;;;;;1.10;0.50;;;12.40;99.90;;;;;;5047712;28;20459;-77
2022/10/01 12:29:31;;;;;;;1.47;0.57;;;12.40;99.90;;;;;;5048927;28;20429;-76
2022/10/01 12:32:22;;;;;;;0.70;0.40;;;12.40;99.90;;;;;;5027941;28;20528;-76
2022/10/01 12:34:52;;;;;;;0.80;0.50;;;12.40;99.90;;;;;;5048038;28;20983;-77
2022/10/01 12:37:45;;;;;;;1.00;0.70;;;12.40;99.90;;;;;;5048782;28;20421;-77
2022/10/01 12:40:39;;;;;;;0.77;0.50;;;12.50;99.90;;;;;;5049256;28;20450;-78
2022/10/01 12:43:20;;;;;;;0.80;0.40;;;12.50;99.90;;;;;;5048765;28;20461;-77
2022/10/01 12:46:07;;;;;;;1.00;0.60;;;12.60;99.90;;;;;;5049829;28;20437;-78
2022/10/01 12:48:46;;;;;;;1.00;0.50;;;12.60;99.90;;;;;;5049353;28;20410;-76
2022/10/01 12:51:30;;;;;;;3.47;0.73;;;12.60;99.90;;;;;;5048636;28;20457;-77
2022/10/01 12:54:06;;;;;;;5.03;1.10;;;12.60;99.90;;;;;;5049535;28;20443;-77
2022/10/01 12:56:32;;;;;;;1.93;0.60;;;12.60;99.90;;;;;;5047049;28;20479;-77
2022/10/01 12:59:28;;;;;;;0.80;0.53;;;12.70;99.90;;;;;;5048582;28;20501;-76
2022/10/01 13:02:21;;;;;;;0.80;0.60;;;12.70;99.90;;;;;;5049415;28;20202;-77
2022/10/01 13:05:01;;;;;;;1.20;0.80;;;12.80;99.90;;;;;;5049250;28;20776;-77
2022/10/01 13:07:30;;;;;;;1.00;0.80;;;12.90;99.90;;;;;;5049604;28;20806;-78
2022/10/01 13:10:24;;;;;;;1.10;0.70;;;13.00;99.90;;;;;;5049231;28;20425;-77
2022/10/01 13:13:09;;;;;;;0.80;0.50;;;13.00;99.90;;;;;;5030224;28;21047;-77
2022/10/01 13:15:41;;;;;;;0.90;0.73;;;13.10;99.90;;;;;;5048600;28;20420;-77
2022/10/01 13:18:30;;;;;;;5.70;0.67;;;13.20;99.90;;;;;;5049214;28;20421;-78